Aviation Digital Data Service (ADDS)

Output produced by METARs form (1422 UTC 10 July 2020)
found at http://www.aviationweather.gov/metar/data/
 
KABY 101353Z 29007KT 10SM BKN020 29/25 A2998 RMK AO2 SLP150 T02940250
KABY 101120Z 1012/1112 29007KT P6SM SCT035 
     FM101800 30010KT P6SM VCTS SCT040CB 
     FM102100 29005KT P6SM SCT100 
     PROB30 1021/1024 5SM TSRA BKN100CB 
     FM110000 27003KT P6SM SCT200